createdAt,value
2023-05-01T00:02:51.790Z,5.57
2023-05-01T00:05:38.963Z,6.20
2023-05-01T00:08:27.448Z,5.00
2023-05-01T00:11:14.318Z,6.57
2023-05-01T00:14:02.490Z,8.23
2023-05-01T00:16:51.816Z,5.77
2023-05-01T00:19:38.445Z,5.47
2023-05-01T00:22:25.433Z,6.63
2023-05-01T00:25:12.757Z,7.17
2023-05-01T00:27:59.968Z,7.33
2023-05-01T00:30:48.504Z,8.80
2023-05-01T00:33:35.090Z,7.03
2023-05-01T00:36:22.308Z,6.17
2023-05-01T00:39:09.317Z,5.80
2023-05-01T00:41:56.398Z,5.77
2023-05-01T00:44:43.276Z,7.17
2023-05-01T00:47:31.778Z,6.47
2023-05-01T00:50:19.334Z,6.80
2023-05-01T00:53:06.127Z,6.87
2023-05-01T00:55:53.310Z,6.23
2023-05-01T00:58:40.530Z,5.80
2023-05-01T01:01:29.003Z,6.60
2023-05-01T01:04:17.382Z,7.63
2023-05-01T01:07:12.806Z,5.83
2023-05-01T01:10:06.853Z,7.83
2023-05-01T01:13:04.480Z,6.47
2023-05-01T01:16:02.585Z,7.47
2023-05-01T01:19:00.785Z,6.73
2023-05-01T01:21:55.746Z,7.83
2023-05-01T01:24:58.570Z,5.97
2023-05-01T01:28:08.438Z,8.10
2023-05-01T01:31:15.683Z,6.33
2023-05-01T01:34:06.619Z,6.93
2023-05-01T01:37:02.908Z,7.40
2023-05-01T01:39:59.001Z,6.43
2023-05-01T01:42:50.891Z,10.47
2023-05-01T01:45:42.066Z,7.53
2023-05-01T01:48:34.577Z,10.60
2023-05-01T01:51:24.372Z,7.73
2023-05-01T01:54:16.460Z,6.97
2023-05-01T01:57:04.557Z,6.90
2023-05-01T01:59:52.848Z,6.90
2023-05-01T02:02:41.039Z,9.20
2023-05-01T02:05:29.275Z,6.87
2023-05-01T02:08:19.256Z,5.87
2023-05-01T02:11:07.422Z,5.87
2023-05-01T02:13:56.366Z,6.63
2023-05-01T02:16:43.896Z,7.47
2023-05-01T02:19:33.276Z,11.20
2023-05-01T02:22:22.621Z,7.73
2023-05-01T02:25:13.553Z,7.20
2023-05-01T02:28:04.198Z,7.60
2023-05-01T02:30:52.695Z,9.20
2023-05-01T02:33:39.528Z,7.97
2023-05-01T02:36:27.648Z,8.90
2023-05-01T02:39:14.650Z,7.97
2023-05-01T02:42:05.135Z,6.77
2023-05-01T02:44:58.092Z,5.67
2023-05-01T02:47:47.151Z,7.10
2023-05-01T02:50:34.556Z,8.20
2023-05-01T02:53:22.835Z,8.57
2023-05-01T02:56:10.190Z,5.77
2023-05-01T02:59:00.010Z,6.73
2023-05-01T03:01:47.000Z,6.30
2023-05-01T03:04:34.116Z,6.97
2023-05-01T03:07:24.487Z,6.03
2023-05-01T03:10:15.962Z,6.53
2023-05-01T03:13:03.869Z,6.73
2023-05-01T03:15:52.017Z,7.87
2023-05-01T03:18:41.883Z,6.87
2023-05-01T03:21:28.906Z,8.87
2023-05-01T03:24:16.610Z,6.63
2023-05-01T03:27:03.574Z,8.03
2023-05-01T03:29:50.942Z,7.73
2023-05-01T03:32:40.865Z,6.87
2023-05-01T03:35:29.219Z,6.03
2023-05-01T03:38:15.982Z,7.30
2023-05-01T03:41:02.999Z,5.93
2023-05-01T03:43:51.233Z,7.60
2023-05-01T03:46:38.145Z,6.57
2023-05-01T03:49:26.805Z,7.83
2023-05-01T03:52:14.665Z,7.33
2023-05-01T03:55:01.785Z,7.37
2023-05-01T03:57:48.545Z,10.07
2023-05-01T04:00:35.712Z,9.60
2023-05-01T04:03:23.174Z,9.57
2023-05-01T04:06:11.588Z,14.60
2023-05-01T04:09:00.466Z,8.03
2023-05-01T04:11:48.109Z,10.07
2023-05-01T04:14:34.918Z,8.20
2023-05-01T04:17:22.390Z,8.00
2023-05-01T04:20:09.694Z,6.40
2023-05-01T04:22:57.906Z,8.40
2023-05-01T04:25:46.121Z,7.10
2023-05-01T04:28:32.918Z,9.67
2023-05-01T04:31:19.702Z,8.63
2023-05-01T04:34:08.393Z,8.07
2023-05-01T04:36:55.360Z,8.60
2023-05-01T04:39:43.608Z,8.60
2023-05-01T04:42:36.484Z,8.00
2023-05-01T04:45:24.426Z,10.30
2023-05-01T04:48:12.170Z,10.23
2023-05-01T04:50:59.642Z,6.73
2023-05-01T04:53:49.646Z,7.33
2023-05-01T04:56:38.009Z,8.40
2023-05-01T04:59:24.887Z,9.20
2023-05-01T05:02:12.636Z,8.03
2023-05-01T05:04:59.644Z,8.40
2023-05-01T05:07:46.634Z,9.50
2023-05-01T05:10:33.644Z,9.57
2023-05-01T05:13:35.070Z,8.70
2023-05-01T05:16:22.072Z,10.73
2023-05-01T05:19:09.298Z,9.53
2023-05-01T05:21:56.100Z,9.53
2023-05-01T05:24:46.154Z,9.30
2023-05-01T05:27:36.602Z,10.13
2023-05-01T05:30:24.724Z,8.67
2023-05-01T05:33:12.479Z,9.23
2023-05-01T05:36:01.003Z,8.83
2023-05-01T05:38:47.837Z,10.03
2023-05-01T05:41:34.804Z,14.33
2023-05-01T05:44:21.761Z,7.93
2023-05-01T05:47:10.491Z,9.17
2023-05-01T05:49:58.033Z,7.70
2023-05-01T05:52:45.532Z,8.60
2023-05-01T05:55:32.847Z,8.10
2023-05-01T05:58:21.442Z,8.90
2023-05-01T06:01:09.913Z,10.37
2023-05-01T06:03:58.530Z,11.80
2023-05-01T06:06:45.555Z,9.30
2023-05-01T06:09:33.518Z,9.77
2023-05-01T06:12:23.206Z,9.30
2023-05-01T06:15:11.418Z,10.87
2023-05-01T06:18:00.296Z,12.37
2023-05-01T06:20:48.991Z,11.43
2023-05-01T06:23:35.838Z,8.00
2023-05-01T06:26:23.935Z,9.07
2023-05-01T06:29:10.790Z,8.13
2023-05-01T06:31:57.900Z,8.47
2023-05-01T06:34:45.137Z,11.53
2023-05-01T06:37:33.717Z,9.97
2023-05-01T06:40:22.930Z,10.10
2023-05-01T06:43:10.182Z,9.77
2023-05-01T06:46:01.177Z,9.50
2023-05-01T06:48:51.456Z,11.13
2023-05-01T06:51:41.772Z,8.40
2023-05-01T06:54:30.176Z,9.03
2023-05-01T06:57:17.669Z,8.87
2023-05-01T07:00:05.716Z,9.27
2023-05-01T07:02:52.834Z,9.60
2023-05-01T07:05:40.358Z,9.80
2023-05-01T07:08:28.226Z,11.37
2023-05-01T07:11:17.413Z,8.80
2023-05-01T07:14:04.630Z,11.23
2023-05-01T07:16:51.520Z,9.27
2023-05-01T07:19:38.894Z,10.70
2023-05-01T07:22:28.977Z,9.57
2023-05-01T07:25:16.273Z,9.27
2023-05-01T07:28:05.257Z,10.20
2023-05-01T07:30:52.752Z,9.47
2023-05-01T07:33:39.369Z,15.23
2023-05-01T07:36:26.234Z,9.13
2023-05-01T07:39:15.030Z,9.47
2023-05-01T07:42:02.035Z,11.87
2023-05-01T07:44:52.278Z,9.83
2023-05-01T07:47:39.688Z,11.90
2023-05-01T07:50:27.099Z,10.43
2023-05-01T07:53:14.162Z,11.43
2023-05-01T07:56:08.987Z,12.37
2023-05-01T07:58:56.072Z,11.90
2023-05-01T08:01:44.861Z,15.10
2023-05-01T08:04:32.156Z,12.57
2023-05-01T08:07:22.313Z,9.73
2023-05-01T08:10:10.426Z,10.80
2023-05-01T08:12:57.158Z,11.27
2023-05-01T08:15:44.047Z,9.13
2023-05-01T08:18:32.399Z,13.50
2023-05-01T08:21:19.288Z,11.10
2023-05-01T08:24:10.201Z,10.87
2023-05-01T08:26:59.654Z,9.47
2023-05-01T08:29:46.734Z,11.10
2023-05-01T08:32:35.861Z,11.23
2023-05-01T08:35:24.270Z,9.97
2023-05-01T08:38:12.182Z,12.30
2023-05-01T08:41:01.485Z,11.00
2023-05-01T08:43:48.554Z,10.93
2023-05-01T08:46:46.217Z,9.00
2023-05-01T08:49:35.060Z,10.17
2023-05-01T08:52:24.177Z,9.87
2023-05-01T08:55:14.412Z,10.40
2023-05-01T08:58:05.911Z,9.57
2023-05-01T09:00:52.987Z,10.60
2023-05-01T09:03:42.706Z,11.33
2023-05-01T09:06:36.884Z,9.47
2023-05-01T09:09:25.603Z,11.40
2023-05-01T09:12:21.567Z,9.93
2023-05-01T09:15:09.917Z,9.63
2023-05-01T09:17:57.455Z,8.73
2023-05-01T09:20:47.322Z,10.47
2023-05-01T09:23:36.030Z,9.90
2023-05-01T09:26:24.280Z,7.87
2023-05-01T09:29:12.530Z,9.97
2023-05-01T09:32:15.222Z,7.80
2023-05-01T09:35:11.862Z,8.03
2023-05-01T09:37:58.999Z,7.80
2023-05-01T09:40:46.722Z,9.73
2023-05-01T09:43:35.656Z,7.80
2023-05-01T09:46:24.540Z,6.93
2023-05-01T09:49:11.362Z,5.70
2023-05-01T09:52:13.534Z,5.00
2023-05-01T09:55:19.441Z,4.17
2023-05-01T09:58:06.635Z,4.43
2023-05-01T10:00:55.958Z,3.77
2023-05-01T10:03:45.154Z,5.03
2023-05-01T10:06:32.749Z,5.50
2023-05-01T10:09:29.518Z,5.40
2023-05-01T10:12:24.965Z,5.37
2023-05-01T10:15:24.690Z,4.43
2023-05-01T10:18:16.287Z,3.97
2023-05-01T10:21:04.349Z,1.53
2023-05-01T10:23:51.948Z,2.87
2023-05-01T10:26:42.108Z,2.03
2023-05-01T10:29:31.264Z,3.03
2023-05-01T10:32:18.042Z,2.20
2023-05-01T10:35:12.240Z,2.23
2023-05-01T10:38:02.031Z,1.80
2023-05-01T10:40:50.396Z,2.10
2023-05-01T10:43:38.079Z,1.83
2023-05-01T10:46:33.643Z,1.53
2023-05-01T10:49:21.644Z,1.50
2023-05-01T10:52:09.783Z,2.73
2023-05-01T10:55:35.472Z,2.17
2023-05-01T10:58:56.224Z,1.20
2023-05-01T11:01:45.217Z,1.40
2023-05-01T11:04:54.112Z,2.55
2023-05-01T11:07:42.921Z,1.30
2023-05-01T11:10:32.010Z,1.70
2023-05-01T11:13:53.878Z,2.65
2023-05-01T11:16:48.908Z,2.63
2023-05-01T11:19:49.630Z,2.50
2023-05-01T11:22:38.146Z,1.92
2023-05-01T11:25:30.326Z,2.40
2023-05-01T11:28:22.267Z,2.20
2023-05-01T11:31:10.425Z,2.77
2023-05-01T11:33:57.888Z,3.10
2023-05-01T11:36:49.852Z,3.05
2023-05-01T11:39:36.935Z,2.97
2023-05-01T11:42:25.114Z,4.35
2023-05-01T11:45:13.581Z,3.63
2023-05-01T11:48:04.562Z,3.47
2023-05-01T11:50:52.043Z,3.42
2023-05-01T11:53:39.128Z,3.55
2023-05-01T11:56:27.470Z,3.00
2023-05-01T11:59:18.976Z,3.85
2023-05-01T12:02:06.070Z,6.03
2023-05-01T12:04:55.726Z,5.13
2023-05-01T12:07:43.555Z,3.97
2023-05-01T12:10:35.333Z,4.70
2023-05-01T12:13:24.976Z,4.50
2023-05-01T12:16:13.334Z,4.80
2023-05-01T12:19:01.062Z,5.93
2023-05-01T12:21:50.505Z,5.13
2023-05-01T12:24:37.844Z,6.63
2023-05-01T12:27:24.935Z,4.90
2023-05-01T12:30:12.734Z,5.33
2023-05-01T12:33:09.165Z,5.50
2023-05-01T12:35:56.314Z,6.25
2023-05-01T12:38:55.850Z,4.80
2023-05-01T12:41:45.556Z,5.60
2023-05-01T12:44:32.766Z,4.63
2023-05-01T12:47:19.604Z,5.72
2023-05-01T12:50:10.195Z,4.65
2023-05-01T12:52:58.380Z,5.60
2023-05-01T12:55:47.339Z,4.82
2023-05-01T12:58:38.490Z,5.47
2023-05-01T13:01:27.452Z,5.57
2023-05-01T13:04:21.470Z,5.28
2023-05-01T13:07:15.058Z,6.65
2023-05-01T13:10:03.526Z,5.60
2023-05-01T13:12:50.843Z,4.72
2023-05-01T13:15:37.948Z,3.63
2023-05-01T13:18:24.792Z,4.82
2023-05-01T13:21:15.792Z,4.55
2023-05-01T13:24:04.931Z,4.35
2023-05-01T13:27:03.481Z,4.60
2023-05-01T13:29:56.089Z,4.40
2023-05-01T13:32:43.911Z,4.45
2023-05-01T13:35:31.104Z,4.88
2023-05-01T13:38:23.398Z,5.40
2023-05-01T13:41:15.520Z,4.35
2023-05-01T13:44:07.598Z,8.10
2023-05-01T13:46:54.310Z,6.38
2023-05-01T13:49:45.592Z,3.50
2023-05-01T13:52:32.410Z,7.28
2023-05-01T13:55:19.973Z,5.63
2023-05-01T13:58:08.226Z,6.03
2023-05-01T14:00:56.054Z,4.63
2023-05-01T14:03:44.311Z,5.53
2023-05-01T14:06:32.076Z,4.30
2023-05-01T14:09:19.843Z,8.07
2023-05-01T14:12:07.047Z,5.73
2023-05-01T14:14:59.637Z,6.20
2023-05-01T14:17:48.553Z,5.90
2023-05-01T14:20:37.740Z,5.57
2023-05-01T14:23:24.956Z,10.57
2023-05-01T14:26:12.806Z,6.20
2023-05-01T14:28:59.323Z,6.20
2023-05-01T14:31:47.742Z,5.90
2023-05-01T14:34:34.557Z,5.67
2023-05-01T14:37:21.755Z,7.60
2023-05-01T14:40:13.439Z,6.50
2023-05-01T14:43:06.090Z,7.03
2023-05-01T14:45:53.124Z,6.32
2023-05-01T14:48:42.902Z,6.38
2023-05-01T14:51:32.264Z,5.95
2023-05-01T14:54:20.344Z,7.15
2023-05-01T14:57:07.566Z,6.32
2023-05-01T14:59:54.619Z,6.00
2023-05-01T15:02:41.608Z,5.43
2023-05-01T15:05:34.451Z,5.05
2023-05-01T15:08:21.548Z,5.68
2023-05-01T15:11:08.937Z,10.43
2023-05-01T15:13:56.031Z,7.15
2023-05-01T15:16:43.312Z,6.50
2023-05-01T15:19:30.588Z,4.05
2023-05-01T15:22:19.424Z,8.85
2023-05-01T15:25:07.389Z,5.47
2023-05-01T15:27:54.499Z,4.93
2023-05-01T15:30:44.889Z,6.03
2023-05-01T15:33:31.941Z,5.95
2023-05-01T15:36:18.926Z,5.50
2023-05-01T15:39:11.737Z,5.32
2023-05-01T15:41:58.948Z,5.45
2023-05-01T15:44:46.168Z,5.35
2023-05-01T15:47:33.498Z,5.80
2023-05-01T15:50:22.093Z,4.70
2023-05-01T15:53:09.718Z,7.30
2023-05-01T15:55:59.604Z,6.18
2023-05-01T15:58:46.260Z,5.00
2023-05-01T16:01:33.874Z,6.65
2023-05-01T16:04:21.276Z,5.32
2023-05-01T16:07:09.007Z,3.55
2023-05-01T16:09:58.200Z,5.10
2023-05-01T16:12:47.184Z,5.38
2023-05-01T16:15:40.209Z,7.78
2023-05-01T16:18:27.604Z,7.45
2023-05-01T16:21:19.622Z,6.18
2023-05-01T16:24:07.303Z,6.95
2023-05-01T16:26:54.320Z,5.57
2023-05-01T16:29:42.726Z,5.95
2023-05-01T16:32:29.628Z,4.90
2023-05-01T16:35:18.670Z,4.27
2023-05-01T16:38:06.676Z,4.87
2023-05-01T16:40:53.655Z,7.53
2023-05-01T16:43:40.502Z,6.87
2023-05-01T16:46:31.709Z,7.50
2023-05-01T16:49:19.435Z,7.50
2023-05-01T16:52:06.663Z,5.97
2023-05-01T16:54:54.603Z,6.43
2023-05-01T16:57:44.154Z,7.70
2023-05-01T17:00:31.320Z,6.63
2023-05-01T17:03:19.982Z,9.03
2023-05-01T17:06:07.137Z,6.83
2023-05-01T17:08:54.850Z,6.70
2023-05-01T17:11:41.694Z,8.60
2023-05-01T17:14:30.490Z,6.63
2023-05-01T17:17:17.932Z,8.40
2023-05-01T17:20:06.984Z,7.72
2023-05-01T17:22:53.906Z,5.83
2023-05-01T17:25:41.060Z,6.97
2023-05-01T17:28:28.184Z,7.40
2023-05-01T17:31:17.236Z,7.37
2023-05-01T17:34:05.072Z,9.97
2023-05-01T17:36:55.841Z,7.43
2023-05-01T17:39:44.501Z,6.23
2023-05-01T17:42:31.432Z,7.00
2023-05-01T17:45:18.383Z,8.20
2023-05-01T17:48:05.874Z,8.00
2023-05-01T17:50:55.801Z,7.27
2023-05-01T17:53:44.684Z,7.90
2023-05-01T17:56:31.751Z,8.00
2023-05-01T17:59:18.803Z,11.93
2023-05-01T18:02:05.874Z,7.87
2023-05-01T18:04:53.941Z,8.23
2023-05-01T18:07:41.024Z,7.40
2023-05-01T18:10:31.489Z,9.17
2023-05-01T18:13:18.422Z,6.97
2023-05-01T18:16:05.311Z,9.53
2023-05-01T18:18:53.119Z,8.03
2023-05-01T18:21:40.335Z,10.20
2023-05-01T18:24:27.329Z,8.13
2023-05-01T18:27:15.780Z,7.70
2023-05-01T18:30:03.244Z,7.73
2023-05-01T18:32:50.143Z,6.90
2023-05-01T18:35:42.397Z,7.87
2023-05-01T18:38:29.385Z,6.53
2023-05-01T18:41:16.486Z,7.33
2023-05-01T18:44:04.941Z,8.80
2023-05-01T18:46:51.876Z,7.60
2023-05-01T18:49:38.796Z,6.17
2023-05-01T18:52:25.605Z,6.50
2023-05-01T18:55:12.822Z,7.40
2023-05-01T18:58:00.714Z,7.47
2023-05-01T19:00:49.228Z,8.63
2023-05-01T19:03:35.994Z,9.30
2023-05-01T19:06:22.794Z,6.93
2023-05-01T19:09:11.131Z,7.80
2023-05-01T19:11:58.020Z,9.13
2023-05-01T19:14:45.064Z,7.90
2023-05-01T19:17:34.030Z,7.93
2023-05-01T19:20:23.625Z,8.67
2023-05-01T19:23:10.506Z,7.70
2023-05-01T19:25:57.132Z,8.83
2023-05-01T19:28:44.098Z,6.53
2023-05-01T19:31:31.158Z,8.63
2023-05-01T19:34:19.605Z,6.67
2023-05-01T19:37:06.596Z,8.57
2023-05-01T19:39:53.712Z,8.93
2023-05-01T19:42:40.687Z,8.87
2023-05-01T19:45:27.643Z,8.50
2023-05-01T19:48:14.678Z,8.97
2023-05-01T19:51:02.986Z,7.50
2023-05-01T19:53:49.853Z,6.73
2023-05-01T19:56:38.488Z,11.27
2023-05-01T19:59:25.453Z,8.77
2023-05-01T20:02:12.477Z,8.00
2023-05-01T20:04:59.782Z,8.43
2023-05-01T20:07:48.259Z,8.03
2023-05-01T20:10:35.239Z,10.33
2023-05-01T20:13:22.105Z,10.90
2023-05-01T20:16:09.620Z,8.87
2023-05-01T20:18:58.260Z,13.67
2023-05-01T20:21:45.464Z,9.33
2023-05-01T20:24:34.356Z,8.70
2023-05-01T20:27:21.147Z,7.80
2023-05-01T20:30:10.537Z,20.37
2023-05-01T20:32:57.785Z,7.43
2023-05-01T20:35:45.326Z,8.13
2023-05-01T20:38:32.522Z,7.73
2023-05-01T20:41:21.121Z,8.00
2023-05-01T20:44:09.004Z,7.00
2023-05-01T20:46:56.503Z,7.60
2023-05-01T20:49:43.791Z,7.27
2023-05-01T20:52:30.765Z,10.17
2023-05-01T20:55:18.202Z,6.67
2023-05-01T20:58:08.341Z,11.30
2023-05-01T21:00:57.562Z,9.47
2023-05-01T21:03:44.430Z,9.33
2023-05-01T21:06:33.256Z,9.00
2023-05-01T21:09:20.141Z,7.67
2023-05-01T21:12:08.927Z,9.00
2023-05-01T21:14:58.182Z,10.00
2023-05-01T21:17:45.174Z,7.40
2023-05-01T21:20:35.113Z,9.07
2023-05-01T21:23:23.320Z,7.47
2023-05-01T21:26:13.961Z,8.57
2023-05-01T21:29:01.396Z,7.53
2023-05-01T21:31:50.222Z,11.67
2023-05-01T21:34:37.124Z,11.00
2023-05-01T21:37:24.582Z,9.53
2023-05-01T21:40:14.891Z,9.97
2023-05-01T21:43:01.902Z,8.83
2023-05-01T21:45:49.187Z,11.70
2023-05-01T21:48:37.556Z,9.27
2023-05-01T21:51:28.534Z,14.07
2023-05-01T21:54:18.041Z,8.40
2023-05-01T21:57:08.076Z,8.77
2023-05-01T21:59:58.500Z,10.13
2023-05-01T22:02:47.458Z,8.43
2023-05-01T22:05:40.860Z,11.10
2023-05-01T22:08:28.216Z,8.47
2023-05-01T22:11:15.035Z,10.83
2023-05-01T22:14:02.116Z,8.73
2023-05-01T22:16:49.255Z,9.63
2023-05-01T22:19:37.834Z,9.43
2023-05-01T22:22:26.043Z,9.10
2023-05-01T22:25:13.239Z,8.60
2023-05-01T22:28:01.447Z,8.47
2023-05-01T22:30:48.350Z,9.60
2023-05-01T22:33:35.048Z,9.87
2023-05-01T22:36:21.920Z,8.33
2023-05-01T22:39:13.849Z,7.23
2023-05-01T22:42:01.771Z,7.17
2023-05-01T22:44:49.621Z,6.57
2023-05-01T22:47:36.366Z,7.57
2023-05-01T22:50:24.115Z,8.00
2023-05-01T22:53:11.144Z,8.43
2023-05-01T22:55:59.206Z,11.53
2023-05-01T22:58:46.211Z,8.70
2023-05-01T23:01:33.524Z,10.93
2023-05-01T23:04:20.583Z,8.97
2023-05-01T23:07:08.919Z,11.40
2023-05-01T23:09:57.453Z,12.30
2023-05-01T23:12:46.868Z,9.27
2023-05-01T23:15:33.920Z,9.27
2023-05-01T23:18:24.880Z,8.83
2023-05-01T23:21:12.062Z,8.93
2023-05-01T23:24:03.105Z,7.53
2023-05-01T23:26:49.947Z,9.20
2023-05-01T23:29:39.712Z,8.90
2023-05-01T23:32:27.979Z,10.90
2023-05-01T23:35:18.892Z,10.70
2023-05-01T23:38:08.237Z,8.87
2023-05-01T23:40:56.204Z,11.17
2023-05-01T23:43:43.816Z,10.37
2023-05-01T23:46:32.388Z,9.27
2023-05-01T23:49:20.134Z,9.23
2023-05-01T23:52:07.843Z,12.60
2023-05-01T23:54:56.915Z,9.23
2023-05-01T23:57:44.151Z,7.33
